Etusivu
METAR-TAF:

METAR-TAF

Lentoasemat :

Hasvik, Norja

Leveyspiiri: 70-29N, Pituuspiiri: 022-09E, korkeus merenpinnasta: 10 m

Tämänhetkinen sää

Tämä raportti tehtiin 18 minuuttia sitten, kello 12.25 UTC
tyyntä
Lämpötila 11°C
Kosteus 71%
Ilmanpaine 972 hPa
Näkyvyys 10 km tai enemmän
Hajonneita pilviä 3400 ft:n korkeudessa

METAR: ENHK 231225Z 00000KT 9999 BKN034 11/06 Q0972

Aika: 14:43 (12:43 UTC)


TAF: puuttuu

Säähavainnot ja -ennusteet yli 4000 lentoasemalta (METAR- ja TAF-raportit).

Käytössä olevat sääasemat on merkitty karttaan keltaisilla ja punaisilla pisteillä.

Aseta hiiri pisteen päälle nähdäksesi sääaseman nimen.

Klikkaa sitten nähdäksesi säähavainnot ja -ennusteet.

Kartan vaihtaminen: klikkaa mustalla rastilla varustettuja vihreitä pisteitä, niin voit zoomata sisään; viivalla varustettua vihreää pistettä, niin voit zoomata ulos tai vihreitä nuolia, niin pääset viereisille kartoille.


METAR-TAF: